Time;durP1;ratioP1;P1;durP2;ratioP2;P2;SDS_P1;SDS_P2;PMS_P1;PMS_P2;Temp;Humidity;BMP_temperature;BMP_pressure;BME280_temperature;BME280_humidity;BME280_pressure;Samples;Min_cycle;Max_cycle;Signal;HPM_P1;HPM_P2
2022/04/10 00:03:28;;;;;;;5.80;4.30;;;;;;;;;;4886263;29;20078;-95
2022/04/10 00:05:54;;;;;;;8.82;4.80;;;;;;;;;;4869759;29;20089;-95
2022/04/10 00:08:20;;;;;;;8.80;5.15;;;;;;;;;;4886080;29;20036;-94
2022/04/10 00:10:47;;;;;;;6.80;4.70;;;;;;;;;;4905011;29;20055;-95
2022/04/10 00:13:13;;;;;;;7.97;5.43;;;;;;;;;;4902723;29;20033;-96
2022/04/10 00:16:16;;;;;;;5.45;4.50;;;;;;;;;;4869433;29;20048;-95
2022/04/10 00:18:42;;;;;;;8.18;3.90;;;;;;;;;;4869103;29;20029;-95
2022/04/10 00:21:08;;;;;;;5.55;4.20;;;;;;;;;;4902365;29;20037;-95
2022/04/10 00:23:34;;;;;;;8.73;4.20;;;;;;;;;;4900576;29;20022;-94
2022/04/10 00:26:00;;;;;;;8.02;4.95;;;;;;;;;;4885827;29;20021;-94
2022/04/10 00:28:27;;;;;;;8.13;4.95;;;;;;;;;;4869802;29;20045;-96
2022/04/10 00:30:53;;;;;;;7.30;5.03;;;;;;;;;;4901957;29;20036;-95
2022/04/10 00:33:19;;;;;;;6.47;4.38;;;;;;;;;;4905366;29;20449;-95
2022/04/10 00:35:45;;;;;;;9.00;4.82;;;;;;;;;;4887677;29;20029;-95
2022/04/10 00:38:12;;;;;;;6.20;5.00;;;;;;;;;;4887054;29;20044;-96
2022/04/10 00:40:38;;;;;;;7.18;4.50;;;;;;;;;;4886338;29;20403;-96
2022/04/10 00:43:04;;;;;;;6.57;5.28;;;;;;;;;;4882937;29;20496;-96
2022/04/10 00:48:33;;;;;;;8.07;5.55;;;;;;;;;;4885642;29;20040;-95
2022/04/10 00:53:44;;;;;;;7.47;4.30;;;;;;;;;;4903888;29;20120;-96
2022/04/10 00:56:10;;;;;;;7.45;5.05;;;;;;;;;;4903827;29;20032;-95
2022/04/10 00:58:37;;;;;;;8.27;5.78;;;;;;;;;;4903397;29;20446;-94
2022/04/10 01:01:03;;;;;;;7.88;5.72;;;;;;;;;;4895625;29;20048;-94
2022/04/10 01:03:29;;;;;;;7.72;5.70;;;;;;;;;;4885927;29;20033;-96
2022/04/10 01:05:55;;;;;;;9.05;5.57;;;;;;;;;;4889974;29;20060;-94
2022/04/10 01:08:21;;;;;;;8.75;6.35;;;;;;;;;;4886626;29;20037;-96
2022/04/10 01:10:48;;;;;;;7.10;5.75;;;;;;;;;;4885517;29;20073;-96
2022/04/10 01:13:14;;;;;;;7.90;5.55;;;;;;;;;;4869119;29;20029;-94
2022/04/10 01:18:44;;;;;;;6.07;5.25;;;;;;;;;;4887409;29;20088;-94
2022/04/10 01:21:12;;;;;;;7.15;5.50;;;;;;;;;;4870601;29;20056;-96
2022/04/10 01:23:38;;;;;;;8.02;5.45;;;;;;;;;;4894495;29;20315;-95
2022/04/10 01:26:04;;;;;;;7.80;5.03;;;;;;;;;;4903224;29;20025;-96
2022/04/10 01:28:30;;;;;;;6.63;5.20;;;;;;;;;;4903259;29;20036;-95
2022/04/10 01:34:02;;;;;;;6.25;5.13;;;;;;;;;;4885650;29;20078;-95
2022/04/10 01:36:29;;;;;;;9.05;5.47;;;;;;;;;;4867746;29;20038;-94
2022/04/10 01:38:56;;;;;;;6.90;5.07;;;;;;;;;;4884485;29;20032;-95
2022/04/10 01:41:25;;;;;;;9.90;6.13;;;;;;;;;;4896618;29;20048;-95
2022/04/10 01:43:52;;;;;;;7.18;5.00;;;;;;;;;;4886271;29;20085;-94
2022/04/10 01:49:22;;;;;;;8.30;5.53;;;;;;;;;;4885369;29;20040;-96
2022/04/10 01:51:48;;;;;;;7.00;5.30;;;;;;;;;;4881765;29;20025;-94
2022/04/10 01:54:14;;;;;;;6.38;5.00;;;;;;;;;;4867829;29;20029;-95
2022/04/10 01:56:42;;;;;;;6.53;4.90;;;;;;;;;;4884234;29;20431;-94
2022/04/10 01:59:08;;;;;;;6.47;5.03;;;;;;;;;;4872531;29;20347;-95
2022/04/10 02:01:34;;;;;;;7.38;4.38;;;;;;;;;;4885853;29;20025;-94
2022/04/10 02:04:00;;;;;;;6.15;4.10;;;;;;;;;;4886827;29;20048;-94
2022/04/10 02:06:26;;;;;;;7.55;4.72;;;;;;;;;;4884040;29;20021;-94
2022/04/10 02:08:52;;;;;;;7.63;5.00;;;;;;;;;;4879090;29;20482;-95
2022/04/10 02:11:19;;;;;;;9.57;5.55;;;;;;;;;;4902708;29;20029;-95
2022/04/10 02:13:46;;;;;;;6.82;5.80;;;;;;;;;;4911178;29;20028;-95
2022/04/10 02:16:14;;;;;;;8.77;5.88;;;;;;;;;;4911758;29;20076;-95
2022/04/10 02:18:40;;;;;;;9.70;6.18;;;;;;;;;;4894504;29;20036;-96
2022/04/10 02:21:09;;;;;;;9.48;6.22;;;;;;;;;;4894813;29;20036;-95
2022/04/10 02:23:36;;;;;;;8.43;6.72;;;;;;;;;;4908383;29;20068;-94
2022/04/10 02:26:03;;;;;;;9.27;6.63;;;;;;;;;;4905936;29;20316;-94
2022/04/10 02:28:30;;;;;;;10.73;6.70;;;;;;;;;;4912362;29;20029;-93
2022/04/10 02:30:56;;;;;;;7.63;5.00;;;;;;;;;;4903205;29;20108;-95
2022/04/10 02:33:22;;;;;;;8.45;4.97;;;;;;;;;;4903519;29;20048;-96
2022/04/10 02:35:48;;;;;;;6.68;4.80;;;;;;;;;;4897865;29;20032;-94
2022/04/10 02:38:16;;;;;;;7.28;4.95;;;;;;;;;;4885554;29;20042;-95
2022/04/10 02:40:43;;;;;;;5.68;4.22;;;;;;;;;;4883694;29;20033;-93
2022/04/10 02:43:10;;;;;;;6.43;4.43;;;;;;;;;;4868444;29;20116;-94
2022/04/10 02:48:40;;;;;;;5.80;4.18;;;;;;;;;;4902390;29;20376;-93
2022/04/10 02:51:06;;;;;;;6.22;3.95;;;;;;;;;;4887586;29;20029;-96
2022/04/10 02:53:32;;;;;;;7.40;4.47;;;;;;;;;;4893471;29;20399;-95
2022/04/10 02:55:58;;;;;;;5.30;3.72;;;;;;;;;;4904700;29;20048;-93
2022/04/10 03:44:35;;;;;;;7.50;5.13;;;;;;;;;;3991046;23;20193;-96
2022/04/10 03:47:02;;;;;;;8.48;5.18;;;;;;;;;;4922517;29;20055;-96
2022/04/10 03:49:28;;;;;;;7.43;6.00;;;;;;;;;;4922907;29;20037;-96
2022/04/10 03:51:54;;;;;;;8.93;5.55;;;;;;;;;;4923539;29;20028;-96
2022/04/10 03:54:20;;;;;;;9.27;5.80;;;;;;;;;;4906965;29;20075;-96
2022/04/10 03:56:46;;;;;;;10.27;6.35;;;;;;;;;;4925910;29;20025;-96
2022/04/10 04:07:00;;;;;;;10.57;6.28;;;;;;;;;;5666265;23;20102;-96
2022/04/10 04:09:29;;;;;;;11.10;6.40;;;;;;;;;;4928568;29;20363;-96
2022/04/10 04:11:57;;;;;;;9.38;6.10;;;;;;;;;;4943536;29;20058;-96
2022/04/10 04:14:26;;;;;;;7.35;6.05;;;;;;;;;;4963739;29;20321;-96
2022/04/10 04:16:52;;;;;;;7.05;5.97;;;;;;;;;;4934813;29;20024;-95
2022/04/10 04:19:18;;;;;;;8.77;5.57;;;;;;;;;;4925615;29;20036;-96
2022/04/10 04:21:44;;;;;;;7.60;5.78;;;;;;;;;;4950017;29;20023;-96
2022/04/10 04:24:10;;;;;;;8.55;5.78;;;;;;;;;;4960476;29;20031;-96
2022/04/10 04:26:37;;;;;;;10.85;6.30;;;;;;;;;;4963900;29;20436;-96
2022/04/10 04:29:03;;;;;;;8.50;6.25;;;;;;;;;;5053203;23;20059;-96
2022/04/10 04:31:29;;;;;;;8.95;6.75;;;;;;;;;;4941477;29;20031;-96
2022/04/10 04:33:55;;;;;;;31.02;13.65;;;;;;;;;;4926180;29;20083;-96
2022/04/10 04:36:21;;;;;;;57.28;22.75;;;;;;;;;;4927482;29;20032;-96
2022/04/10 04:38:47;;;;;;;54.47;22.98;;;;;;;;;;4927879;29;20020;-95
2022/04/10 04:41:14;;;;;;;41.95;19.02;;;;;;;;;;4926544;29;20036;-96
2022/04/10 04:43:40;;;;;;;23.35;11.15;;;;;;;;;;4923034;29;20103;-96
2022/04/10 04:46:06;;;;;;;15.35;8.93;;;;;;;;;;4906275;29;20047;-95
2022/04/10 04:48:32;;;;;;;13.80;8.73;;;;;;;;;;4906256;29;20072;-96
2022/04/10 04:51:00;;;;;;;24.30;13.15;;;;;;;;;;4906186;29;20036;-95
2022/04/10 04:53:26;;;;;;;19.52;12.75;;;;;;;;;;4924239;29;20036;-94
2022/04/10 04:55:52;;;;;;;17.88;12.05;;;;;;;;;;4922616;29;20167;-95
2022/04/10 04:58:19;;;;;;;17.15;11.80;;;;;;;;;;4922758;29;20032;-96
2022/04/10 05:00:47;;;;;;;16.65;11.52;;;;;;;;;;4922693;29;20103;-96
2022/04/10 05:03:15;;;;;;;18.45;12.30;;;;;;;;;;4922571;29;20107;-94
2022/04/10 05:05:41;;;;;;;15.85;11.10;;;;;;;;;;4922596;29;20024;-95
2022/04/10 05:08:07;;;;;;;13.70;9.38;;;;;;;;;;4922525;29;20028;-94
2022/04/10 05:10:33;;;;;;;17.08;10.63;;;;;;;;;;4922160;29;20115;-96
2022/04/10 05:12:59;;;;;;;15.48;10.23;;;;;;;;;;4906043;29;20032;-96
2022/04/10 05:15:25;;;;;;;12.43;9.73;;;;;;;;;;4906339;29;20085;-96
2022/04/10 05:17:51;;;;;;;28.88;17.90;;;;;;;;;;4905840;29;20028;-96
2022/04/10 05:20:18;;;;;;;26.77;16.25;;;;;;;;;;4923840;29;20470;-96
2022/04/10 05:22:44;;;;;;;19.30;13.77;;;;;;;;;;4907461;29;20024;-96
2022/04/10 05:25:11;;;;;;;16.13;11.25;;;;;;;;;;4905978;29;20028;-95
2022/04/10 05:27:37;;;;;;;18.48;11.05;;;;;;;;;;4922903;29;20024;-94
2022/04/10 05:30:03;;;;;;;17.80;11.93;;;;;;;;;;4922304;29;20470;-96
2022/04/10 05:32:30;;;;;;;20.45;13.52;;;;;;;;;;4922470;29;20039;-96
2022/04/10 05:34:56;;;;;;;15.68;12.45;;;;;;;;;;4906917;29;20103;-96
2022/04/10 05:37:22;;;;;;;14.70;10.68;;;;;;;;;;4922954;29;20052;-96
2022/04/10 05:39:48;;;;;;;12.93;8.73;;;;;;;;;;4906023;29;20411;-95
2022/04/10 05:42:14;;;;;;;11.60;7.40;;;;;;;;;;4905842;29;20059;-95
2022/04/10 05:44:40;;;;;;;9.48;6.38;;;;;;;;;;4905611;29;20024;-94
2022/04/10 05:47:08;;;;;;;9.93;6.95;;;;;;;;;;4922607;29;20058;-95
2022/04/10 05:49:34;;;;;;;9.15;6.68;;;;;;;;;;4922083;29;20031;-94
2022/04/10 05:52:00;;;;;;;13.23;9.90;;;;;;;;;;4923590;29;20028;-96
2022/04/10 05:54:26;;;;;;;12.40;10.52;;;;;;;;;;4925572;29;20028;-95
2022/04/10 05:56:53;;;;;;;10.15;7.60;;;;;;;;;;4907662;29;20067;-96
2022/04/10 05:59:19;;;;;;;11.00;8.95;;;;;;;;;;4923240;29;20091;-95
2022/04/10 06:01:45;;;;;;;10.40;7.55;;;;;;;;;;4904791;29;20054;-96
2022/04/10 06:04:11;;;;;;;20.25;14.45;;;;;;;;;;4921723;29;20121;-95
2022/04/10 06:06:37;;;;;;;44.63;27.63;;;;;;;;;;4905054;29;20053;-96
2022/04/10 06:09:03;;;;;;;95.10;43.28;;;;;;;;;;4921539;29;20028;-95
2022/04/10 06:11:29;;;;;;;26.45;13.93;;;;;;;;;;4904837;29;20036;-96
2022/04/10 06:13:55;;;;;;;71.45;39.20;;;;;;;;;;4921237;29;20035;-96
2022/04/10 06:16:21;;;;;;;61.20;36.28;;;;;;;;;;4921948;29;20080;-95
2022/04/10 06:18:47;;;;;;;54.95;36.10;;;;;;;;;;4904988;29;20032;-95
2022/04/10 06:21:13;;;;;;;16.80;13.00;;;;;;;;;;4904861;29;20115;-96
2022/04/10 06:23:40;;;;;;;8.60;6.95;;;;;;;;;;4922557;29;20039;-96
2022/04/10 06:26:06;;;;;;;14.43;10.02;;;;;;;;;;4923398;29;20270;-96
2022/04/10 06:28:32;;;;;;;15.93;9.82;;;;;;;;;;4906388;29;20048;-95
2022/04/10 06:30:59;;;;;;;17.42;11.40;;;;;;;;;;4923007;29;20434;-96
2022/04/10 06:33:25;;;;;;;12.20;8.93;;;;;;;;;;4921424;29;20071;-96
2022/04/10 06:35:53;;;;;;;11.98;8.63;;;;;;;;;;4921853;29;20032;-95
2022/04/10 06:38:19;;;;;;;16.15;10.35;;;;;;;;;;4921594;29;20032;-96
2022/04/10 06:40:47;;;;;;;10.38;7.75;;;;;;;;;;4904936;29;20119;-96
2022/04/10 06:43:13;;;;;;;14.77;8.90;;;;;;;;;;4921659;29;20024;-96
2022/04/10 06:45:39;;;;;;;18.70;11.77;;;;;;;;;;4904829;29;20050;-95
2022/04/10 06:48:06;;;;;;;21.27;12.48;;;;;;;;;;4904514;29;20028;-96
2022/04/10 06:50:32;;;;;;;14.35;9.60;;;;;;;;;;4921300;29;20316;-95
2022/04/10 06:52:58;;;;;;;11.73;8.20;;;;;;;;;;4904109;29;20123;-96
2022/04/10 06:55:24;;;;;;;12.18;9.00;;;;;;;;;;4920955;29;20028;-94
2022/04/10 06:57:50;;;;;;;14.80;11.20;;;;;;;;;;4921588;29;20036;-95
2022/04/10 07:00:17;;;;;;;20.02;13.68;;;;;;;;;;4904715;29;20415;-95
2022/04/10 07:02:48;;;;;;;23.63;15.95;;;;;;;;;;4922720;29;20024;-95
2022/04/10 07:05:14;;;;;;;23.88;15.73;;;;;;;;;;4922198;29;20103;-96
2022/04/10 07:07:40;;;;;;;36.40;20.15;;;;;;;;;;4905834;29;20040;-96
2022/04/10 07:10:06;;;;;;;40.83;16.98;;;;;;;;;;4906817;29;20036;-96
2022/04/10 07:12:33;;;;;;;25.73;14.70;;;;;;;;;;4906773;29;20036;-94
2022/04/10 07:15:03;;;;;;;11.40;8.85;;;;;;;;;;4921019;29;20045;-95
2022/04/10 07:17:32;;;;;;;12.38;9.05;;;;;;;;;;4924332;29;20060;-96
2022/04/10 07:19:59;;;;;;;12.70;9.07;;;;;;;;;;4926234;29;20020;-96
2022/04/10 07:25:15;;;;;;;11.00;8.13;;;;;;;;;;4921168;29;20040;-93
2022/04/10 07:27:41;;;;;;;14.90;9.10;;;;;;;;;;4904174;29;20042;-93
2022/04/10 07:30:07;;;;;;;10.82;6.70;;;;;;;;;;4920815;29;20074;-94
2022/04/10 07:32:33;;;;;;;9.98;6.75;;;;;;;;;;4920705;29;20036;-95
2022/04/10 07:35:06;;;;;;;7.68;5.70;;;;;;;;;;4924180;29;20068;-94
2022/04/10 07:37:33;;;;;;;7.15;5.25;;;;;;;;;;4907535;29;20032;-93
2022/04/10 07:39:59;;;;;;;9.05;6.03;;;;;;;;;;4924235;29;20020;-94
2022/04/10 07:42:26;;;;;;;7.45;5.40;;;;;;;;;;4907320;29;20075;-95
2022/04/10 07:47:46;;;;;;;9.80;5.72;;;;;;;;;;5076363;23;20113;-96
2022/04/10 07:55:59;;;;;;;7.25;5.45;;;;;;;;;;5963287;23;20013;-96
2022/04/10 07:58:25;;;;;;;9.88;6.25;;;;;;;;;;4927292;29;20046;-95
2022/04/10 08:00:51;;;;;;;6.90;5.75;;;;;;;;;;4943476;29;20055;-94
2022/04/10 08:03:17;;;;;;;8.02;5.80;;;;;;;;;;4943607;29;20024;-93
2022/04/10 08:05:44;;;;;;;8.00;5.95;;;;;;;;;;4942459;29;20024;-93
2022/04/10 08:08:11;;;;;;;10.23;5.88;;;;;;;;;;4926038;29;20445;-94
2022/04/10 08:10:38;;;;;;;8.25;6.10;;;;;;;;;;4925656;29;20040;-94
2022/04/10 08:13:05;;;;;;;7.75;5.60;;;;;;;;;;4943044;29;20024;-94
2022/04/10 08:15:50;;;;;;;11.52;6.00;;;;;;;;;;4942807;29;20035;-93
2022/04/10 08:18:17;;;;;;;10.88;6.15;;;;;;;;;;4941102;29;20039;-94
2022/04/10 08:20:43;;;;;;;10.15;6.80;;;;;;;;;;4942445;29;20442;-94
2022/04/10 08:23:09;;;;;;;11.82;7.18;;;;;;;;;;4925719;29;20035;-94
2022/04/10 08:25:36;;;;;;;10.43;7.40;;;;;;;;;;4942553;28;20032;-94
2022/04/10 08:28:02;;;;;;;10.02;6.93;;;;;;;;;;4942863;29;20032;-95
2022/04/10 08:30:28;;;;;;;9.43;6.72;;;;;;;;;;4942453;29;20028;-95
2022/04/10 08:32:54;;;;;;;11.02;8.48;;;;;;;;;;4925461;29;20040;-94
2022/04/10 08:35:20;;;;;;;8.25;6.50;;;;;;;;;;4942067;29;20032;-93
2022/04/10 08:37:46;;;;;;;15.57;11.32;;;;;;;;;;4942003;29;20028;-95
2022/04/10 08:40:13;;;;;;;13.88;8.02;;;;;;;;;;4942110;29;20039;-94
2022/04/10 08:42:39;;;;;;;10.30;6.47;;;;;;;;;;4942610;29;20418;-95
2022/04/10 08:45:07;;;;;;;11.15;7.90;;;;;;;;;;4941380;29;20034;-94
2022/04/10 08:47:33;;;;;;;12.13;7.90;;;;;;;;;;4942027;29;20442;-94
2022/04/10 08:50:01;;;;;;;11.05;6.38;;;;;;;;;;4941999;29;20036;-94
2022/04/10 08:52:27;;;;;;;10.65;6.47;;;;;;;;;;4924828;29;20145;-94
2022/04/10 08:54:53;;;;;;;10.40;7.10;;;;;;;;;;4925457;28;20027;-93
2022/04/10 08:57:19;;;;;;;9.70;6.47;;;;;;;;;;4925445;29;20056;-95
2022/04/10 08:59:45;;;;;;;7.30;6.00;;;;;;;;;;4925578;29;20034;-94
2022/04/10 09:02:30;;;;;;;6.60;5.90;;;;;;;;;;4942347;29;20035;-94
2022/04/10 09:04:56;;;;;;;12.70;7.93;;;;;;;;;;4942265;29;20028;-95
2022/04/10 09:07:22;;;;;;;8.60;6.10;;;;;;;;;;4928438;29;20067;-96
2022/04/10 09:09:56;;;;;;;9.15;6.78;;;;;;;;;;4942144;29;20036;-95
2022/04/10 09:12:26;;;;;;;11.65;7.75;;;;;;;;;;4926376;29;20028;-92
2022/04/10 09:14:54;;;;;;;9.40;6.15;;;;;;;;;;4942825;29;20034;-95
2022/04/10 09:17:22;;;;;;;9.63;6.13;;;;;;;;;;4941840;29;20051;-95
2022/04/10 09:19:50;;;;;;;14.80;7.82;;;;;;;;;;4943280;29;20027;-94
2022/04/10 09:22:43;;;;;;;13.30;7.57;;;;;;;;;;4926431;29;20070;-95
2022/04/10 09:25:14;;;;;;;9.77;6.30;;;;;;;;;;4942711;28;20299;-95
2022/04/10 09:27:44;;;;;;;7.20;5.15;;;;;;;;;;4925780;29;20051;-93
2022/04/10 09:30:14;;;;;;;6.72;5.20;;;;;;;;;;4941529;29;20030;-94
2022/04/10 09:32:40;;;;;;;7.88;4.70;;;;;;;;;;4925236;29;20114;-93
2022/04/10 09:35:06;;;;;;;5.88;4.60;;;;;;;;;;4941887;29;20024;-95
2022/04/10 09:38:02;;;;;;;6.03;4.50;;;;;;;;;;4925912;29;20062;-94
2022/04/10 09:40:28;;;;;;;7.35;4.78;;;;;;;;;;4834522;29;20038;-94
2022/04/10 09:42:58;;;;;;;10.00;4.93;;;;;;;;;;4850866;29;20030;-94
2022/04/10 09:45:28;;;;;;;7.35;4.88;;;;;;;;;;4907020;23;20086;-95
2022/04/10 09:47:54;;;;;;;10.65;5.30;;;;;;;;;;4961250;29;20046;-93
2022/04/10 09:50:29;;;;;;;34.15;19.05;;;;;;;;;;4963478;29;20155;-95
2022/04/10 09:52:55;;;;;;;7.57;5.00;;;;;;;;;;4962509;29;20019;-94
2022/04/10 09:55:34;;;;;;;6.03;4.38;;;;;;;;;;4960071;29;20019;-94
2022/04/10 09:58:01;;;;;;;7.18;4.72;;;;;;;;;;4942772;29;20035;-93
2022/04/10 10:00:28;;;;;;;7.22;4.90;;;;;;;;;;4960033;29;20023;-93
2022/04/10 10:02:55;;;;;;;12.10;5.18;;;;;;;;;;4943023;29;20026;-95
2022/04/10 10:05:21;;;;;;;7.97;5.10;;;;;;;;;;4960152;29;20325;-94
2022/04/10 10:07:49;;;;;;;11.15;3.40;;;;;;;;;;4960516;29;20028;-92
2022/04/10 10:10:17;;;;;;;10.43;4.38;;;;;;;;;;4960360;29;20031;-93
2022/04/10 10:12:45;;;;;;;6.93;4.13;;;;;;;;;;4959512;29;20055;-92
2022/04/10 10:15:11;;;;;;;16.52;7.93;;;;;;;;;;4959326;29;20046;-92
2022/04/10 10:17:38;;;;;;;8.30;4.20;;;;;;;;;;4959375;29;20050;-95
2022/04/10 10:20:06;;;;;;;6.95;3.85;;;;;;;;;;4959553;29;20031;-92
2022/04/10 10:22:32;;;;;;;6.05;3.92;;;;;;;;;;4959622;29;20417;-91
2022/04/10 10:25:07;;;;;;;7.55;3.58;;;;;;;;;;4942390;29;20492;-93
2022/04/10 10:27:42;;;;;;;5.00;3.45;;;;;;;;;;4942555;29;20024;-93
2022/04/10 10:30:27;;;;;;;7.03;4.32;;;;;;;;;;5012591;23;20051;-96
2022/04/10 10:32:58;;;;;;;6.18;3.40;;;;;;;;;;4959199;29;20123;-95
2022/04/10 10:35:32;;;;;;;6.90;3.60;;;;;;;;;;4959575;29;20054;-92
2022/04/10 10:37:58;;;;;;;6.55;3.95;;;;;;;;;;4942462;29;20031;-94
2022/04/10 10:40:24;;;;;;;6.18;3.58;;;;;;;;;;4942114;29;20114;-93
2022/04/10 10:42:50;;;;;;;7.15;3.45;;;;;;;;;;4959401;29;20027;-94
2022/04/10 10:45:35;;;;;;;5.57;3.13;;;;;;;;;;4942557;29;20035;-92
2022/04/10 10:48:20;;;;;;;5.07;3.10;;;;;;;;;;4959184;29;20452;-93
2022/04/10 10:50:46;;;;;;;5.70;3.67;;;;;;;;;;4959212;29;20066;-93
2022/04/10 10:53:13;;;;;;;3.83;2.80;;;;;;;;;;4959765;29;20317;-94
2022/04/10 10:55:46;;;;;;;5.35;4.00;;;;;;;;;;4960160;29;20020;-92
2022/04/10 10:58:18;;;;;;;8.13;3.35;;;;;;;;;;4942331;29;20199;-94
2022/04/10 11:00:44;;;;;;;;;;;;;;;;;;4942589;29;20126;-93
2022/04/10 11:03:10;;;;;;;3.42;3.08;;;;;;;;;;4959529;29;20293;-94
2022/04/10 11:05:36;;;;;;;3.92;3.05;;;;;;;;;;4959086;29;20019;-94
2022/04/10 11:08:07;;;;;;;7.10;3.65;;;;;;;;;;4959682;28;20023;-95
2022/04/10 11:10:36;;;;;;;7.40;4.00;;;;;;;;;;4963096;29;20023;-93
2022/04/10 11:13:06;;;;;;;4.30;3.58;;;;;;;;;;4932807;29;20114;-93
2022/04/10 11:15:34;;;;;;;11.52;4.65;;;;;;;;;;4962719;29;20033;-94
2022/04/10 11:18:23;;;;;;;12.82;5.82;;;;;;;;;;4962847;29;20067;-94
2022/04/10 11:20:53;;;;;;;11.40;5.72;;;;;;;;;;4945720;29;20035;-93
2022/04/10 11:23:19;;;;;;;46.08;22.42;;;;;;;;;;4965087;29;20027;-94
2022/04/10 11:25:49;;;;;;;43.50;21.75;;;;;;;;;;4962164;29;20023;-92
2022/04/10 11:28:15;;;;;;;17.80;12.73;;;;;;;;;;4944890;29;20493;-93
2022/04/10 11:30:43;;;;;;;6.35;4.20;;;;;;;;;;4962336;29;20041;-94
2022/04/10 11:33:10;;;;;;;5.75;3.60;;;;;;;;;;4962565;29;20110;-94
2022/04/10 11:35:37;;;;;;;6.15;3.63;;;;;;;;;;4945031;29;20043;-95
2022/04/10 11:38:12;;;;;;;7.78;3.28;;;;;;;;;;4945507;29;20062;-93
2022/04/10 11:40:41;;;;;;;5.45;3.35;;;;;;;;;;4962228;29;20418;-94
2022/04/10 11:43:08;;;;;;;7.28;4.10;;;;;;;;;;4945443;29;20409;-92
2022/04/10 11:45:35;;;;;;;5.72;4.00;;;;;;;;;;4962047;29;20325;-94
2022/04/10 11:48:03;;;;;;;5.90;3.95;;;;;;;;;;4962209;29;20039;-93
2022/04/10 11:50:30;;;;;;;7.97;4.30;;;;;;;;;;4962015;29;20027;-93
2022/04/10 11:52:56;;;;;;;7.60;4.18;;;;;;;;;;4962061;29;20034;-93
2022/04/10 11:55:28;;;;;;;6.40;4.70;;;;;;;;;;4961980;29;20031;-94
2022/04/10 11:57:54;;;;;;;16.80;7.43;;;;;;;;;;4944614;29;20035;-93
2022/04/10 12:00:20;;;;;;;8.38;4.75;;;;;;;;;;4961966;29;20354;-94
2022/04/10 12:02:52;;;;;;;5.22;4.00;;;;;;;;;;4963218;29;20024;-92
2022/04/10 12:05:18;;;;;;;;;;;;;;;;;;4945346;29;20114;-93
2022/04/10 12:07:44;;;;;;;6.93;4.38;;;;;;;;;;4944684;29;19942;-94
2022/04/10 12:10:10;;;;;;;6.32;4.20;;;;;;;;;;4962054;29;20032;-94
2022/04/10 12:12:38;;;;;;;7.13;4.43;;;;;;;;;;4961559;29;20031;-94
2022/04/10 12:15:15;;;;;;;6.93;4.32;;;;;;;;;;4961801;29;20354;-94
2022/04/10 12:17:41;;;;;;;15.00;7.97;;;;;;;;;;4944536;29;20031;-93
2022/04/10 12:20:07;;;;;;;14.02;5.05;;;;;;;;;;4962257;28;20028;-93
2022/04/10 12:22:33;;;;;;;8.02;4.70;;;;;;;;;;4961663;29;20032;-91
2022/04/10 12:25:00;;;;;;;8.23;5.55;;;;;;;;;;4944557;29;20049;-90
2022/04/10 12:27:26;;;;;;;6.97;4.43;;;;;;;;;;4961068;29;20027;-92
2022/04/10 12:29:52;;;;;;;19.70;15.57;;;;;;;;;;4961068;29;20051;-90
2022/04/10 12:32:18;;;;;;;59.95;34.22;;;;;;;;;;4944358;29;20024;-90
2022/04/10 12:34:44;;;;;;;30.95;15.23;;;;;;;;;;4960965;29;20023;-89
2022/04/10 12:37:11;;;;;;;37.88;20.65;;;;;;;;;;4961081;29;20034;-90
2022/04/10 12:39:38;;;;;;;13.23;7.93;;;;;;;;;;4961186;29;20071;-90
2022/04/10 12:42:09;;;;;;;13.15;8.60;;;;;;;;;;4961010;29;20027;-91
2022/04/10 12:44:39;;;;;;;14.30;8.05;;;;;;;;;;4944097;29;20028;-91
2022/04/10 12:47:09;;;;;;;12.20;6.57;;;;;;;;;;4961011;29;20027;-90
2022/04/10 12:49:39;;;;;;;5.97;4.47;;;;;;;;;;4960991;29;20024;-90
2022/04/10 12:52:05;;;;;;;8.20;4.30;;;;;;;;;;4943739;29;20128;-92
2022/04/10 12:54:37;;;;;;;6.72;5.28;;;;;;;;;;4959780;29;20035;-91
2022/04/10 12:57:04;;;;;;;8.48;5.78;;;;;;;;;;4960365;29;20417;-90
2022/04/10 12:59:35;;;;;;;13.07;9.02;;;;;;;;;;4939738;29;20043;-89
2022/04/10 13:02:01;;;;;;;12.77;7.10;;;;;;;;;;4961180;29;20397;-89
2022/04/10 13:04:29;;;;;;;18.38;10.10;;;;;;;;;;4959709;29;20019;-89
2022/04/10 13:06:55;;;;;;;10.27;7.28;;;;;;;;;;4959862;29;20053;-89
2022/04/10 13:09:21;;;;;;;5.70;3.15;;;;;;;;;;4959106;29;20039;-89
2022/04/10 13:11:50;;;;;;;20.65;7.63;;;;;;;;;;4955219;29;20039;-89
2022/04/10 13:14:16;;;;;;;17.98;7.88;;;;;;;;;;4950725;29;20114;-89
2022/04/10 13:16:43;;;;;;;9.23;4.40;;;;;;;;;;4959120;29;20035;-88
2022/04/10 13:19:10;;;;;;;7.80;3.78;;;;;;;;;;4955564;29;20046;-88
2022/04/10 13:21:37;;;;;;;6.38;3.97;;;;;;;;;;4952763;29;20039;-90
2022/04/10 13:24:04;;;;;;;7.15;4.68;;;;;;;;;;4960530;29;20367;-90
2022/04/10 13:26:31;;;;;;;8.80;5.03;;;;;;;;;;4943433;29;20101;-89
2022/04/10 13:28:59;;;;;;;15.35;7.13;;;;;;;;;;4960089;29;20098;-90
2022/04/10 13:31:25;;;;;;;6.97;4.00;;;;;;;;;;4942750;29;20023;-89
2022/04/10 13:33:51;;;;;;;12.25;6.35;;;;;;;;;;4960212;29;20247;-90
2022/04/10 13:36:17;;;;;;;5.80;4.05;;;;;;;;;;4960082;29;20062;-89
2022/04/10 13:38:44;;;;;;;10.02;5.25;;;;;;;;;;4942674;29;20039;-90
2022/04/10 13:41:13;;;;;;;9.77;4.68;;;;;;;;;;4942871;29;20428;-90
2022/04/10 13:43:39;;;;;;;5.97;3.83;;;;;;;;;;4959905;29;20034;-89
2022/04/10 13:46:05;;;;;;;6.93;4.45;;;;;;;;;;4955308;29;20340;-89
2022/04/10 13:48:32;;;;;;;10.60;5.00;;;;;;;;;;4947928;29;20035;-89
2022/04/10 13:50:58;;;;;;;7.60;4.28;;;;;;;;;;4944048;29;20035;-88
2022/04/10 13:53:24;;;;;;;8.55;5.05;;;;;;;;;;4940380;29;20032;-89
2022/04/10 13:55:50;;;;;;;5.68;3.95;;;;;;;;;;4924114;29;20039;-93
2022/04/10 13:58:16;;;;;;;9.88;4.63;;;;;;;;;;4941713;29;20035;-93
2022/04/10 14:00:52;;;;;;;6.65;4.47;;;;;;;;;;4943813;29;20028;-95
2022/04/10 14:03:19;;;;;;;5.65;4.28;;;;;;;;;;4946166;29;20063;-93
2022/04/10 14:05:45;;;;;;;5.95;4.00;;;;;;;;;;4943436;29;20023;-95
2022/04/10 14:08:11;;;;;;;7.45;3.75;;;;;;;;;;4949573;29;20039;-93
2022/04/10 14:10:38;;;;;;;9.40;3.38;;;;;;;;;;4923507;29;20032;-93
2022/04/10 14:13:04;;;;;;;5.90;4.20;;;;;;;;;;4941750;29;20023;-93
2022/04/10 14:15:30;;;;;;;5.70;3.55;;;;;;;;;;4924184;29;20032;-92
2022/04/10 14:17:57;;;;;;;9.80;4.65;;;;;;;;;;4943754;29;20027;-91
2022/04/10 14:20:26;;;;;;;5.97;3.90;;;;;;;;;;4928496;29;20326;-91
2022/04/10 14:22:53;;;;;;;8.07;3.83;;;;;;;;;;4942206;29;20114;-92
2022/04/10 14:25:19;;;;;;;5.43;3.78;;;;;;;;;;4959611;29;20027;-93
2022/04/10 14:27:45;;;;;;;8.73;4.40;;;;;;;;;;4942453;29;20024;-93
2022/04/10 14:30:11;;;;;;;5.70;3.60;;;;;;;;;;4959625;29;20349;-90
2022/04/10 14:32:39;;;;;;;5.97;3.78;;;;;;;;;;4959507;29;20410;-92
2022/04/10 14:35:05;;;;;;;4.85;3.92;;;;;;;;;;4944537;29;20032;-91
2022/04/10 14:37:31;;;;;;;7.93;4.20;;;;;;;;;;4940062;29;20039;-90
2022/04/10 14:39:57;;;;;;;6.50;4.20;;;;;;;;;;4940006;29;20038;-92
2022/04/10 14:42:24;;;;;;;5.85;3.83;;;;;;;;;;4939750;29;20461;-94
2022/04/10 14:44:50;;;;;;;4.82;3.38;;;;;;;;;;4926552;29;20020;-93
2022/04/10 14:47:16;;;;;;;8.20;3.40;;;;;;;;;;4944049;29;20028;-91
2022/04/10 14:49:42;;;;;;;3.72;3.20;;;;;;;;;;4944102;29;20028;-92
2022/04/10 14:52:09;;;;;;;6.40;3.08;;;;;;;;;;4944664;29;20055;-93
2022/04/10 14:54:35;;;;;;;11.88;6.38;;;;;;;;;;4927405;29;20036;-91
2022/04/10 14:57:01;;;;;;;4.75;2.97;;;;;;;;;;4927851;29;20418;-95
2022/04/10 14:59:27;;;;;;;6.13;3.00;;;;;;;;;;4943827;29;20075;-93
2022/04/10 15:08:01;;;;;;;2.65;2.10;;;;;;;;;;4962786;29;20066;-94
2022/04/10 15:10:27;;;;;;;5.60;2.30;;;;;;;;;;4963183;29;20028;-91
2022/04/10 15:12:54;;;;;;;4.68;2.28;;;;;;;;;;4946019;29;20027;-93
2022/04/10 15:15:20;;;;;;;7.90;4.40;;;;;;;;;;4962617;29;20348;-93
2022/04/10 15:17:46;;;;;;;8.70;4.75;;;;;;;;;;4962306;29;20049;-92
2022/04/10 15:20:12;;;;;;;7.63;4.63;;;;;;;;;;4945674;29;20046;-93
2022/04/10 15:22:39;;;;;;;8.38;5.07;;;;;;;;;;4962431;29;20414;-95
2022/04/10 15:25:06;;;;;;;5.40;3.63;;;;;;;;;;4962617;29;20027;-93
2022/04/10 15:27:35;;;;;;;13.85;6.80;;;;;;;;;;4945580;29;20059;-93
2022/04/10 15:30:03;;;;;;;7.63;5.00;;;;;;;;;;4962130;29;20442;-94
2022/04/10 15:32:29;;;;;;;9.02;5.10;;;;;;;;;;4946028;29;20062;-94
2022/04/10 15:34:55;;;;;;;11.57;4.75;;;;;;;;;;4962559;29;20338;-92
2022/04/10 15:37:21;;;;;;;7.90;4.30;;;;;;;;;;4962929;29;20027;-92
2022/04/10 15:39:47;;;;;;;4.75;2.92;;;;;;;;;;4962263;28;20315;-93
2022/04/10 15:42:13;;;;;;;4.20;2.70;;;;;;;;;;4964042;29;20023;-94
2022/04/10 15:44:39;;;;;;;4.22;2.78;;;;;;;;;;4945670;29;20402;-94
2022/04/10 15:47:06;;;;;;;6.22;2.22;;;;;;;;;;4961224;29;20071;-94
2022/04/10 15:49:34;;;;;;;2.08;1.70;;;;;;;;;;4950069;29;20046;-94
2022/04/10 15:52:00;;;;;;;15.65;6.13;;;;;;;;;;4959373;29;20329;-93
2022/04/10 15:54:26;;;;;;;7.35;3.72;;;;;;;;;;4950366;29;20035;-96
2022/04/10 15:56:53;;;;;;;33.28;19.05;;;;;;;;;;4937608;29;20429;-94
2022/04/10 15:59:20;;;;;;;12.98;8.82;;;;;;;;;;4952773;29;20424;-96
2022/04/10 16:01:46;;;;;;;21.90;14.10;;;;;;;;;;4948701;29;20027;-94
2022/04/10 16:04:12;;;;;;;58.25;35.50;;;;;;;;;;4954284;29;20038;-95
2022/04/10 16:06:39;;;;;;;40.53;22.20;;;;;;;;;;4930481;29;20031;-93
2022/04/10 16:09:05;;;;;;;25.60;15.23;;;;;;;;;;4942588;29;20028;-93